Observation data for Tatum on 08/06/2020      Previous  Date       Current Mesonet Observations  Soil Data  Daily Summary Page  Observations in Plain Language
KTAT 060500Z 22016G23KT 29/08 A3007 RMK A01 T02850084  RH  029%=      5-min Rain = 0
KTAT 060505Z 22016G23KT 28/09 A3007 RMK A01 T02840085  RH  029%=      5-min Rain = 0
KTAT 060510Z 22015G20KT 28/09 A3007 RMK A01 T02800090  RH  031%=      5-min Rain = 0
KTAT 060515Z 23013KT 28/09 A3007 RMK A01 T02780092  RH  032%=      5-min Rain = 0
KTAT 060520Z 23014KT 28/09 A3007 RMK A01 T02810091  RH  031%=      5-min Rain = 0
KTAT 060525Z 23013KT 28/09 A3007 RMK A01 T02800092  RH  032%=      5-min Rain = 0
KTAT 060530Z 22010KT 29/09 A3007 RMK A01 T02860086  RH  029%=      5-min Rain = 0
KTAT 060535Z 22010KT 29/09 A3007 RMK A01 T02870088  RH  030%=      5-min Rain = 0
KTAT 060540Z 22008KT 29/09 A3006 RMK A01 T02890088  RH  029%=      5-min Rain = 0
KTAT 060545Z 24006KT 29/09 A3006 RMK A01 T02870091  RH  030%=      5-min Rain = 0
KTAT 060550Z 26004KT 28/10 A3006 RMK A01 T02820098  RH  033%=      5-min Rain = 0
KTAT 060555Z 27004KT 28/11 A3006 RMK A01 T02750110  RH  037%=      5-min Rain = 0
KTAT 060600Z 29006KT 27/12 A3006 RMK A01 T02680123  RH  042%=      5-min Rain = 0
KTAT 060605Z 30007KT 27/12 A3005 RMK A01 T02650120  RH  042%=      5-min Rain = 0
KTAT 060610Z 30008KT 27/12 A3005 RMK A01 T02660117  RH  041%=      5-min Rain = 0
KTAT 060615Z 30008KT 27/12 A3005 RMK A01 T02670117  RH  041%=      5-min Rain = 0
KTAT 060620Z 31008KT 27/12 A3004 RMK A01 T02660116  RH  041%=      5-min Rain = 0
KTAT 060625Z 32008KT 27/11 A3004 RMK A01 T02660114  RH  040%=      5-min Rain = 0
KTAT 060630Z 32008KT 27/11 A3004 RMK A01 T02660113  RH  040%=      5-min Rain = 0
KTAT 060635Z 32007KT 27/11 A3003 RMK A01 T02670109  RH  039%=      5-min Rain = 0
KTAT 060640Z 29006KT 27/11 A3004 RMK A01 T02680111  RH  039%=      5-min Rain = 0
KTAT 060645Z 20008KT 26/12 A3004 RMK A01 T02640120  RH  042%=      5-min Rain = 0
KTAT 060650Z 19006KT 27/11 A3004 RMK A01 T02650111  RH  039%=      5-min Rain = 0
KTAT 060655Z 24008KT 27/11 A3004 RMK A01 T02690106  RH  037%=      5-min Rain = 0
KTAT 060700Z 25007KT 27/10 A3005 RMK A01 T02720104  RH  036%=      5-min Rain = 0
KTAT 060705Z 23006KT 27/11 A3005 RMK A01 T02680113  RH  039%=      5-min Rain = 0
KTAT 060710Z 24008KT 27/11 A3004 RMK A01 T02670107  RH  038%=      5-min Rain = 0
KTAT 060715Z 23005KT 27/11 A3004 RMK A01 T02670110  RH  039%=      5-min Rain = 0
KTAT 060720Z 23006KT 27/11 A3005 RMK A01 T02650112  RH  040%=      5-min Rain = 0
KTAT 060725Z 23006KT 26/11 A3005 RMK A01 T02630110  RH  040%=      5-min Rain = 0
KTAT 060730Z 22006KT 26/11 A3005 RMK A01 T02610111  RH  041%=      5-min Rain = 0
KTAT 060735Z 21007KT 26/11 A3005 RMK A01 T02580113  RH  042%=      5-min Rain = 0
KTAT 060740Z 20007KT 26/11 A3005 RMK A01 T02560112  RH  042%=      5-min Rain = 0
KTAT 060745Z 18008KT 26/10 A3005 RMK A01 T02610104  RH  039%=      5-min Rain = 0
KTAT 060750Z 19008KT 26/11 A3005 RMK A01 T02610105  RH  039%=      5-min Rain = 0
KTAT 060755Z 19008KT 26/11 A3006 RMK A01 T02590105  RH  039%=      5-min Rain = 0
KTAT 060800Z 19008KT 26/10 A3006 RMK A01 T02580104  RH  039%=      5-min Rain = 0
KTAT 060805Z 19008KT 25/10 A3006 RMK A01 T02540104  RH  040%=      5-min Rain = 0
KTAT 060810Z 19007KT 25/11 A3006 RMK A01 T02520105  RH  041%=      5-min Rain = 0
KTAT 060815Z 19007KT 25/10 A3006 RMK A01 T02520103  RH  040%=      5-min Rain = 0
KTAT 060820Z 19006KT 25/11 A3006 RMK A01 T02490108  RH  042%=      5-min Rain = 0
KTAT 060825Z 18006KT 24/11 A3006 RMK A01 T02420109  RH  045%=      5-min Rain = 0
KTAT 060830Z 18006KT 24/11 A3006 RMK A01 T02430109  RH  044%=      5-min Rain = 0
KTAT 060835Z 18006KT 24/11 A3006 RMK A01 T02410111  RH  046%=      5-min Rain = 0
KTAT 060840Z 18006KT 24/11 A3006 RMK A01 T02400111  RH  046%=      5-min Rain = 0
KTAT 060845Z 17007KT 24/11 A3006 RMK A01 T02370113  RH  047%=      5-min Rain = 0
KTAT 060850Z 18006KT 23/12 A3006 RMK A01 T02330116  RH  049%=      5-min Rain = 0
KTAT 060855Z 17007KT 23/12 A3006 RMK A01 T02320116  RH  050%=      5-min Rain = 0
KTAT 060900Z 17007KT 23/12 A3006 RMK A01 T02330115  RH  049%=      5-min Rain = 0
KTAT 060905Z 17007KT 23/12 A3006 RMK A01 T02310117  RH  051%=      5-min Rain = 0
KTAT 060910Z 17006KT 23/12 A3006 RMK A01 T02280118  RH  052%=      5-min Rain = 0
KTAT 060915Z 17006KT 23/12 A3006 RMK A01 T02260120  RH  053%=      5-min Rain = 0
KTAT 060920Z 18006KT 23/12 A3006 RMK A01 T02260121  RH  053%=      5-min Rain = 0
KTAT 060925Z 18006KT 23/12 A3006 RMK A01 T02270121  RH  053%=      5-min Rain = 0
KTAT 060930Z 19006KT 23/12 A3006 RMK A01 T02260122  RH  054%=      5-min Rain = 0
KTAT 060935Z 19006KT 23/12 A3006 RMK A01 T02260122  RH  054%=      5-min Rain = 0
KTAT 060940Z 19005KT 22/12 A3006 RMK A01 T02240123  RH  055%=      5-min Rain = 0
KTAT 060945Z 19005KT 22/13 A3006 RMK A01 T02220125  RH  056%=      5-min Rain = 0
KTAT 060950Z 20005KT 22/13 A3006 RMK A01 T02190127  RH  058%=      5-min Rain = 0
KTAT 060955Z 20006KT 22/13 A3006 RMK A01 T02170128  RH  059%=      5-min Rain = 0
KTAT 061000Z 19006KT 22/13 A3006 RMK A01 T02160129  RH  060%=      5-min Rain = 0
KTAT 061005Z 20006KT 22/13 A3006 RMK A01 T02170130  RH  060%=      5-min Rain = 0
KTAT 061010Z 20005KT 22/13 A3006 RMK A01 T02180130  RH  060%=      5-min Rain = 0
KTAT 061015Z 19005KT 22/13 A3006 RMK A01 T02180131  RH  060%=      5-min Rain = 0
KTAT 061020Z 19005KT 22/13 A3006 RMK A01 T02200130  RH  059%=      5-min Rain = 0
KTAT 061025Z 19005KT 22/13 A3006 RMK A01 T02210131  RH  059%=      5-min Rain = 0
KTAT 061030Z 21006KT 22/13 A3006 RMK A01 T02230130  RH  058%=      5-min Rain = 0
KTAT 061035Z 22006KT 22/13 A3006 RMK A01 T02240131  RH  058%=      5-min Rain = 0
KTAT 061040Z 22006KT 22/13 A3006 RMK A01 T02240132  RH  058%=      5-min Rain = 0
KTAT 061045Z 22006KT 22/13 A3006 RMK A01 T02230133  RH  059%=      5-min Rain = 0
KTAT 061050Z 21006KT 22/13 A3006 RMK A01 T02210132  RH  059%=      5-min Rain = 0
KTAT 061055Z 20007KT 22/13 A3006 RMK A01 T02220131  RH  059%=      5-min Rain = 0
KTAT 061100Z 19008KT 22/13 A3006 RMK A01 T02220131  RH  059%=      5-min Rain = 0
KTAT 061105Z 19008KT 22/13 A3006 RMK A01 T02220132  RH  059%=      5-min Rain = 0
KTAT 061110Z 19007KT 22/13 A3006 RMK A01 T02210132  RH  059%=      5-min Rain = 0
KTAT 061115Z 19007KT 22/13 A3006 RMK A01 T02210133  RH  060%=      5-min Rain = 0
KTAT 061120Z 19007KT 22/13 A3006 RMK A01 T02220132  RH  059%=      5-min Rain = 0
KTAT 061125Z 19007KT 22/13 A3006 RMK A01 T02220132  RH  059%=      5-min Rain = 0
KTAT 061130Z 19006KT 22/13 A3006 RMK A01 T02230133  RH  059%=      5-min Rain = 0
KTAT 061135Z 18006KT 22/13 A3006 RMK A01 T02220133  RH  059%=      5-min Rain = 0
KTAT 061140Z 18006KT 22/13 A3006 RMK A01 T02220133  RH  059%=      5-min Rain = 0
KTAT 061145Z 19006KT 22/13 A3006 RMK A01 T02230133  RH  059%=      5-min Rain = 0
KTAT 061150Z 19005KT 22/13 A3007 RMK A01 T02230133  RH  059%=      5-min Rain = 0
KTAT 061155Z 19006KT 22/13 A3007 RMK A01 T02240133  RH  059%=      5-min Rain = 0
KTAT 061200Z 19006KT 22/13 A3007 RMK A01 T02240133  RH  059%=      5-min Rain = 0
KTAT 061205Z 18007KT 22/13 A3007 RMK A01 T02240132  RH  058%=      5-min Rain = 0
KTAT 061210Z 18007KT 22/13 A3007 RMK A01 T02230132  RH  059%=      5-min Rain = 0
KTAT 061215Z 18007KT 22/13 A3007 RMK A01 T02230132  RH  059%=      5-min Rain = 0
KTAT 061220Z 17007KT 22/13 A3007 RMK A01 T02230133  RH  059%=      5-min Rain = 0
KTAT 061225Z 17008KT 22/13 A3007 RMK A01 T02220133  RH  060%=      5-min Rain = 0
KTAT 061230Z 17008KT 22/13 A3007 RMK A01 T02220134  RH  060%=      5-min Rain = 0
KTAT 061235Z 17010KT 22/13 A3007 RMK A01 T02240133  RH  059%=      5-min Rain = 0
KTAT 061240Z 17009KT 23/13 A3007 RMK A01 T02260133  RH  058%=      5-min Rain = 0
KTAT 061245Z 17009KT 23/13 A3007 RMK A01 T02270133  RH  058%=      5-min Rain = 0
KTAT 061250Z 17008KT 23/13 A3007 RMK A01 T02270134  RH  058%=      5-min Rain = 0
KTAT 061255Z 17009KT 23/13 A3007 RMK A01 T02280133  RH  058%=      5-min Rain = 0
KTAT 061300Z 17009KT 23/13 A3007 RMK A01 T02280133  RH  057%=      5-min Rain = 0
KTAT 061305Z 18009KT 23/13 A3007 RMK A01 T02290133  RH  057%=      5-min Rain = 0
KTAT 061310Z 17010KT 23/13 A3007 RMK A01 T02290134  RH  057%=      5-min Rain = 0
KTAT 061315Z 17009KT 23/13 A3007 RMK A01 T02300134  RH  057%=      5-min Rain = 0
KTAT 061320Z 17009KT 23/14 A3007 RMK A01 T02310135  RH  057%=      5-min Rain = 0
KTAT 061325Z 17011KT 23/14 A3007 RMK A01 T02320135  RH  057%=      5-min Rain = 0
KTAT 061330Z 17011KT 23/14 A3007 RMK A01 T02340135  RH  056%=      5-min Rain = 0
KTAT 061335Z 17012KT 24/14 A3007 RMK A01 T02350135  RH  056%=      5-min Rain = 0
KTAT 061340Z 16013KT 24/14 A3007 RMK A01 T02350135  RH  056%=      5-min Rain = 0
KTAT 061345Z 17014KT 24/14 A3007 RMK A01 T02360135  RH  055%=      5-min Rain = 0
KTAT 061350Z 17012KT 24/14 A3007 RMK A01 T02370135  RH  055%=      5-min Rain = 0
KTAT 061355Z 17014G19KT 24/14 A3007 RMK A01 T02380135  RH  055%=      5-min Rain = 0
KTAT 061400Z 17015G20KT 24/14 A3007 RMK A01 T02390135  RH  054%=      5-min Rain = 0
KTAT 061405Z 17015KT 24/14 A3007 RMK A01 T02380135  RH  055%=      5-min Rain = 0
KTAT 061410Z 17015KT 24/14 A3007 RMK A01 T02380135  RH  054%=      5-min Rain = 0
KTAT 061415Z 17016KT 24/14 A3007 RMK A01 T02390135  RH  054%=      5-min Rain = 0
KTAT 061420Z 17015G20KT 24/14 A3007 RMK A01 T02400135  RH  054%=      5-min Rain = 0
KTAT 061425Z 17015KT 24/14 A3007 RMK A01 T02430136  RH  053%=      5-min Rain = 0
KTAT 061430Z 17015KT 25/14 A3007 RMK A01 T02510138  RH  051%=      5-min Rain = 0
KTAT 061435Z 17016KT 26/14 A3007 RMK A01 T02640137  RH  047%=      5-min Rain = 0
KTAT 061440Z 17017G22KT 27/14 A3008 RMK A01 T02720135  RH  045%=      5-min Rain = 0
KTAT 061445Z 17017KT 27/13 A3008 RMK A01 T02720133  RH  044%=      5-min Rain = 0
KTAT 061450Z 17016KT 27/13 A3008 RMK A01 T02700133  RH  045%=      5-min Rain = 0
KTAT 061455Z 18017KT 26/13 A3008 RMK A01 T02640132  RH  046%=      5-min Rain = 0
KTAT 061500Z 17015KT 27/13 A3008 RMK A01 T02660134  RH  046%=      5-min Rain = 0
KTAT 061505Z 18015KT 27/13 A3008 RMK A01 T02700134  RH  045%=      5-min Rain = 0
KTAT 061510Z 18015KT 27/13 A3008 RMK A01 T02710134  RH  045%=      5-min Rain = 0
KTAT 061515Z 18016KT 27/13 A3008 RMK A01 T02720133  RH  044%=      5-min Rain = 0
KTAT 061520Z 18016KT 28/14 A3008 RMK A01 T02760135  RH  043%=      5-min Rain = 0
KTAT 061525Z 18015G20KT 29/13 A3008 RMK A01 T02850134  RH  041%=      5-min Rain = 0
KTAT 061530Z 18016KT 28/13 A3008 RMK A01 T02840131  RH  041%=      5-min Rain = 0
KTAT 061535Z 19015KT 28/13 A3008 RMK A01 T02780132  RH  042%=      5-min Rain = 0
KTAT 061540Z 18014KT 28/14 A3008 RMK A01 T02760135  RH  044%=      5-min Rain = 0
KTAT 061545Z 18015KT 28/14 A3008 RMK A01 T02770135  RH  043%=      5-min Rain = 0
KTAT 061550Z 18015KT 29/14 A3008 RMK A01 T02880136  RH  041%=      5-min Rain = 0
KTAT 061555Z 18015KT 29/14 A3008 RMK A01 T02940135  RH  039%=      5-min Rain = 0
KTAT 061600Z 17014KT 30/13 A3008 RMK A01 T02960134  RH  039%=      5-min Rain = 0
KTAT 061605Z 17014KT 30/13 A3008 RMK A01 T02950133  RH  039%=      5-min Rain = 0
KTAT 061610Z 18013KT 29/13 A3008 RMK A01 T02900132  RH  039%=      5-min Rain = 0
KTAT 061615Z 19012KT 28/13 A3009 RMK A01 T02840133  RH  041%=      5-min Rain = 0
KTAT 061620Z 18012KT 28/13 A3009 RMK A01 T02840133  RH  041%=      5-min Rain = 0
KTAT 061625Z 19012KT 28/13 A3009 RMK A01 T02840132  RH  041%=      5-min Rain = 0
KTAT 061630Z 19013KT 29/13 A3009 RMK A01 T02940130  RH  038%=      5-min Rain = 0
KTAT 061635Z 19012KT 29/13 A3009 RMK A01 T02910127  RH  038%=      5-min Rain = 0
KTAT 061640Z 19011KT 29/13 A3009 RMK A01 T02900130  RH  039%=      5-min Rain = 0
KTAT 061645Z 18012KT 30/13 A3009 RMK A01 T02990133  RH  038%=      5-min Rain = 0
KTAT 061650Z 18011KT 31/13 A3009 RMK A01 T03090130  RH  035%=      5-min Rain = 0
KTAT 061655Z 18011KT 32/13 A3009 RMK A01 T03160128  RH  033%=      5-min Rain = 0
KTAT 061700Z 18010KT 32/13 A3009 RMK A01 T03180129  RH  033%=      5-min Rain = 0
KTAT 061705Z 18010G15KT 32/13 A3009 RMK A01 T03230128  RH  032%=      5-min Rain = 0
KTAT 061710Z 19011KT 33/13 A3008 RMK A01 T03250126  RH  031%=      5-min Rain = 0
KTAT 061715Z 19011KT 33/13 A3008 RMK A01 T03270126  RH  031%=      5-min Rain = 0
KTAT 061720Z 19011KT 33/12 A3008 RMK A01 T03250124  RH  031%=      5-min Rain = 0
KTAT 061725Z 19010KT 33/13 A3008 RMK A01 T03290126  RH  030%=      5-min Rain = 0
KTAT 061730Z 19010KT 33/12 A3008 RMK A01 T03320121  RH  029%=      5-min Rain = 0
KTAT 061735Z 20010KT 33/12 A3008 RMK A01 T03320118  RH  028%=      5-min Rain = 0
KTAT 061740Z 19009G14KT 33/12 A3008 RMK A01 T03310121  RH  029%=      5-min Rain = 0
KTAT 061745Z 21008G13KT 33/12 A3008 RMK A01 T03340122  RH  029%=      5-min Rain = 0
KTAT 061750Z 20011KT 33/12 A3008 RMK A01 T03320117  RH  028%=      5-min Rain = 0
KTAT 061755Z 20010KT 34/11 A3008 RMK A01 T03350114  RH  027%=      5-min Rain = 0
KTAT 061800Z 22010G15KT 33/11 A3008 RMK A01 T03320110  RH  027%=      5-min Rain = 0
KTAT 061805Z 22009KT 33/12 A3008 RMK A01 T03320117  RH  028%=      5-min Rain = 0
KTAT 061810Z 21009G16KT 34/12 A3008 RMK A01 T03370118  RH  027%=      5-min Rain = 0
KTAT 061815Z 20010KT 34/12 A3008 RMK A01 T03420119  RH  027%=      5-min Rain = 0
KTAT 061820Z 20010G15KT 34/11 A3008 RMK A01 T03380114  RH  027%=      5-min Rain = 0
KTAT 061825Z 19010G15KT 34/11 A3008 RMK A01 T03390112  RH  026%=      5-min Rain = 0
KTAT 061830Z 19009G15KT 34/12 A3007 RMK A01 T03440116  RH  026%=      5-min Rain = 0
KTAT 061835Z 20007KT 35/11 A3007 RMK A01 T03470114  RH  025%=      5-min Rain = 0
KTAT 061840Z 17009KT 35/12 A3007 RMK A01 T03480119  RH  026%=      5-min Rain = 0
KTAT 061845Z 18007G13KT 36/12 A3007 RMK A01 T03550118  RH  025%=      5-min Rain = 0
KTAT 061850Z 19006G11KT 35/12 A3007 RMK A01 T03540115  RH  024%=      5-min Rain = 0
KTAT 061855Z 19009KT 36/11 A3006 RMK A01 T03620113  RH  023%=      5-min Rain = 0
KTAT 061900Z 17009KT 36/11 A3006 RMK A01 T03630111  RH  023%=      5-min Rain = 0
KTAT 061905Z 19009G14KT 36/11 A3006 RMK A01 T03620112  RH  023%=      5-min Rain = 0
KTAT 061910Z 18009G15KT 36/11 A3006 RMK A01 T03620114  RH  023%=      5-min Rain = 0
KTAT 061915Z 16007G12KT 36/11 A3006 RMK A01 T03600111  RH  023%=      5-min Rain = 0
KTAT 061920Z 17011KT 37/11 A3005 RMK A01 T03650112  RH  022%=      5-min Rain = 0
KTAT 061925Z 16009KT 37/11 A3005 RMK A01 T03660108  RH  022%=      5-min Rain = 0
KTAT 061930Z 18009G15KT 37/11 A3005 RMK A01 T03670107  RH  022%=      5-min Rain = 0
KTAT 061935Z 17006G12KT 37/11 A3005 RMK A01 T03710105  RH  021%=      5-min Rain = 0
KTAT 061940Z 24004KT 36/09 A3004 RMK A01 T03570094  RH  021%=      5-min Rain = 0
KTAT 061945Z 26006KT 36/08 A3004 RMK A01 T03580078  RH  019%=      5-min Rain = 0
KTAT 061950Z 30003KT 36/07 A3004 RMK A01 T03550074  RH  018%=      5-min Rain = 0
KTAT 061955Z 19007G15KT 36/10 A3004 RMK A01 T03590095  RH  021%=      5-min Rain = 0
KTAT 062000Z 19004G9KT 36/11 A3004 RMK A01 T03600105  RH  022%=      5-min Rain = 0
KTAT 062005Z 21004KT 36/10 A3004 RMK A01 T03590104  RH  022%=      5-min Rain = 0
KTAT 062010Z 22005KT 35/10 A3004 RMK A01 T03530100  RH  022%=      5-min Rain = 0
KTAT 062015Z 25004KT 36/09 A3003 RMK A01 T03560092  RH  021%=      5-min Rain = 0
KTAT 062020Z 21006KT 35/09 A3003 RMK A01 T03530091  RH  021%=      5-min Rain = 0
KTAT 062025Z 24008G16KT 35/08 A3003 RMK A01 T03500078  RH  019%=      5-min Rain = 0
KTAT 062030Z 22009KT 35/07 A3003 RMK A01 T03510068  RH  018%=      5-min Rain = 0
KTAT 062035Z 19006KT 35/07 A3003 RMK A01 T03510072  RH  019%=      5-min Rain = 0
KTAT 062040Z 19005KT 35/07 A3003 RMK A01 T03530069  RH  018%=      5-min Rain = 0
KTAT 062045Z 19004KT 35/08 A3002 RMK A01 T03530077  RH  019%=      5-min Rain = 0
KTAT 062050Z 17007KT 36/07 A3002 RMK A01 T03610074  RH  018%=      5-min Rain = 0
KTAT 062055Z 21005KT 36/07 A3002 RMK A01 T03570071  RH  018%=      5-min Rain = 0
KTAT 062100Z 24002KT 35/08 A3002 RMK A01 T03510076  RH  019%=      5-min Rain = 0
KTAT 062105Z 21005KT 35/09 A3001 RMK A01 T03500087  RH  021%=      5-min Rain = 0
KTAT 062110Z 20002KT 35/08 A3001 RMK A01 T03460080  RH  020%=      5-min Rain = 0
KTAT 062115Z 19006KT 35/09 A3001 RMK A01 T03450089  RH  021%=      5-min Rain = 0
KTAT 062120Z 19003KT 34/09 A3001 RMK A01 T03440086  RH  021%=      5-min Rain = 0
KTAT 062125Z 27003G9KT 34/09 A3002 RMK A01 T03420094  RH  023%=      5-min Rain = 0
KTAT 062130Z 29013G20KT 31/14 A3002 RMK A01 T03130135  RH  035%=      5-min Rain = 0.06
KTAT 062135Z 31009G18KT 29/11 A3002 RMK A01 T02910114  RH  035%=      5-min Rain = 0.01
KTAT 062140Z 35005KT 30/14 A3001 RMK A01 T02970137  RH  039%=      5-min Rain = 0
KTAT 062145Z 04005KT 29/16 A30 RMK A01 T02930161  RH  047%=      5-min Rain = 0
KTAT 062150Z 04004KT 30/17 A30 RMK A01 T02950167  RH  048%=      5-min Rain = 0
KTAT 062155Z 05003KT 30/18 A30 RMK A01 T02980178  RH  051%=      5-min Rain = 0
KTAT 062200Z 06002KT 30/18 A30 RMK A01 T02990176  RH  050%=      5-min Rain = 0
KTAT 062205Z 11004KT 30/17 A30 RMK A01 T03020172  RH  048%=      5-min Rain = 0
KTAT 062210Z 09005G10KT 31/14 A30 RMK A01 T03080141  RH  038%=      5-min Rain = 0
KTAT 062215Z 07006KT 31/13 A30 RMK A01 T03110128  RH  034%=      5-min Rain = 0
KTAT 062220Z 10009G14KT 30/15 A3001 RMK A01 T03040154  RH  042%=      5-min Rain = 0
KTAT 062225Z 15010KT 30/12 A3001 RMK A01 T03010124  RH  035%=      5-min Rain = 0
KTAT 062230Z 13005KT 31/11 A3001 RMK A01 T03070112  RH  031%=      5-min Rain = 0
KTAT 062235Z 13009KT 31/12 A30 RMK A01 T03100118  RH  032%=      5-min Rain = 0
KTAT 062240Z 15008KT 32/12 A30 RMK A01 T03160121  RH  032%=      5-min Rain = 0
KTAT 062245Z 15009KT 32/12 A30 RMK A01 T03210122  RH  031%=      5-min Rain = 0
KTAT 062250Z 14010G15KT 33/11 A2999 RMK A01 T03290109  RH  027%=      5-min Rain = 0
KTAT 062255Z 14009KT 33/10 A2999 RMK A01 T03280103  RH  026%=      5-min Rain = 0
KTAT 062300Z 15009KT 33/11 A2999 RMK A01 T03260107  RH  027%=      5-min Rain = 0
KTAT 062305Z 14009KT 32/11 A30 RMK A01 T03240109  RH  028%=      5-min Rain = 0
KTAT 062310Z 15012G22KT 32/11 A30 RMK A01 T03200114  RH  029%=      5-min Rain = 0
KTAT 062315Z 15017G25KT 32/11 A30 RMK A01 T03150106  RH  029%=      5-min Rain = 0
KTAT 062320Z 16017KT 31/11 A30 RMK A01 T03120107  RH  029%=      5-min Rain = 0
KTAT 062325Z 16017G22KT 31/11 A2999 RMK A01 T03080110  RH  031%=      5-min Rain = 0
KTAT 062330Z 16019KT 31/11 A2999 RMK A01 T03080106  RH  030%=      5-min Rain = 0
KTAT 062335Z 16015G20KT 30/11 A2999 RMK A01 T03040109  RH  031%=      5-min Rain = 0
KTAT 062340Z 16013KT 31/11 A2999 RMK A01 T03120106  RH  029%=      5-min Rain = 0
KTAT 062345Z 15010KT 32/11 A2999 RMK A01 T03170109  RH  029%=      5-min Rain = 0
KTAT 062350Z 16008KT 32/11 A2999 RMK A01 T03150110  RH  029%=      5-min Rain = 0
KTAT 062355Z 16008KT 32/11 A2999 RMK A01 T03160110  RH  029%=      5-min Rain = 0
KTAT 070000Z 17010KT 32/10 A2999 RMK A01 T03170100  RH  027%=      5-min Rain = 0
KTAT 070005Z 16011KT 33/10 A2999 RMK A01 T03290098  RH  025%=      5-min Rain = 0
KTAT 070010Z 17011KT 33/10 A2999 RMK A01 T03320095  RH  024%=      5-min Rain = 0
KTAT 070015Z 17010KT 33/09 A2999 RMK A01 T03280091  RH  024%=      5-min Rain = 0
KTAT 070020Z 17010KT 33/09 A2999 RMK A01 T03250094  RH  025%=      5-min Rain = 0
KTAT 070025Z 17010KT 32/10 A2999 RMK A01 T03230096  RH  025%=      5-min Rain = 0
KTAT 070030Z 16010KT 32/10 A30 RMK A01 T03220097  RH  026%=      5-min Rain = 0
KTAT 070035Z 16011KT 32/10 A30 RMK A01 T03190100  RH  027%=      5-min Rain = 0
KTAT 070040Z 14016G26KT 31/10 A30 RMK A01 T03110101  RH  028%=      5-min Rain = 0
KTAT 070045Z 14016G22KT 29/11 A30 RMK A01 T02890113  RH  035%=      5-min Rain = 0
KTAT 070050Z 14018G24KT 28/11 A3001 RMK A01 T02840114  RH  036%=      5-min Rain = 0
KTAT 070055Z 14016G21KT 28/12 A3001 RMK A01 T02820118  RH  037%=      5-min Rain = 0
KTAT 070100Z 14019G25KT 28/13 A3002 RMK A01 T02780129  RH  041%=      5-min Rain = 0
KTAT 070105Z 14019G24KT 27/14 A3002 RMK A01 T02720136  RH  045%=      5-min Rain = 0
KTAT 070110Z 14018G23KT 27/14 A3002 RMK A01 T02700137  RH  046%=      5-min Rain = 0
KTAT 070115Z 14018G23KT 27/14 A3003 RMK A01 T02690137  RH  046%=      5-min Rain = 0
KTAT 070120Z 14019G25KT 27/14 A3003 RMK A01 T02660138  RH  047%=      5-min Rain = 0
KTAT 070125Z 13017KT 26/14 A3003 RMK A01 T02640139  RH  048%=      5-min Rain = 0
KTAT 070130Z 13017KT 26/14 A3004 RMK A01 T02600142  RH  050%=      5-min Rain = 0
KTAT 070135Z 13017KT 26/14 A3004 RMK A01 T02580144  RH  052%=      5-min Rain = 0
KTAT 070140Z 13016KT 26/14 A3004 RMK A01 T02570144  RH  052%=      5-min Rain = 0
KTAT 070145Z 12016KT 26/14 A3004 RMK A01 T02570140  RH  050%=      5-min Rain = 0
KTAT 070150Z 13014G19KT 26/14 A3004 RMK A01 T02570136  RH  049%=      5-min Rain = 0
KTAT 070155Z 13015G20KT 26/13 A3004 RMK A01 T02580132  RH  047%=      5-min Rain = 0
KTAT 070200Z 13016KT 26/13 A3004 RMK A01 T02590128  RH  046%=      5-min Rain = 0
KTAT 070205Z 12016KT 26/13 A3004 RMK A01 T02580126  RH  045%=      5-min Rain = 0
KTAT 070210Z 12015G21KT 26/13 A3004 RMK A01 T02570126  RH  046%=      5-min Rain = 0
KTAT 070215Z 12013KT 26/13 A3005 RMK A01 T02550126  RH  047%=      5-min Rain = 0
KTAT 070220Z 12011KT 25/13 A3005 RMK A01 T02530126  RH  047%=      5-min Rain = 0
KTAT 070225Z 12009KT 25/13 A3005 RMK A01 T02520127  RH  048%=      5-min Rain = 0
KTAT 070230Z 12009KT 25/12 A3005 RMK A01 T02500124  RH  047%=      5-min Rain = 0
KTAT 070235Z 12008KT 25/12 A3005 RMK A01 T02500121  RH  046%=      5-min Rain = 0
KTAT 070240Z 12010KT 25/12 A3005 RMK A01 T02490117  RH  045%=      5-min Rain = 0
KTAT 070245Z 12011KT 25/12 A3005 RMK A01 T02490115  RH  045%=      5-min Rain = 0
KTAT 070250Z 12009KT 25/12 A3005 RMK A01 T02480115  RH  045%=      5-min Rain = 0
KTAT 070255Z 13010KT 25/12 A3005 RMK A01 T02460117  RH  046%=      5-min Rain = 0
KTAT 070300Z 14009KT 25/12 A3005 RMK A01 T02460118  RH  046%=      5-min Rain = 0
KTAT 070305Z 14008KT 24/12 A3005 RMK A01 T02440121  RH  048%=      5-min Rain = 0
KTAT 070310Z 15008KT 24/12 A3005 RMK A01 T02410123  RH  050%=      5-min Rain = 0
KTAT 070315Z 14008KT 24/12 A3005 RMK A01 T02400122  RH  049%=      5-min Rain = 0
KTAT 070320Z 14007KT 24/12 A3005 RMK A01 T02390122  RH  050%=      5-min Rain = 0
KTAT 070325Z 13007KT 24/12 A3005 RMK A01 T02390121  RH  049%=      5-min Rain = 0
KTAT 070330Z 13006KT 24/12 A3005 RMK A01 T02390121  RH  050%=      5-min Rain = 0
KTAT 070335Z 13004KT 24/12 A3006 RMK A01 T02370123  RH  051%=      5-min Rain = 0
KTAT 070340Z 12004KT 24/13 A3006 RMK A01 T02360125  RH  052%=      5-min Rain = 0
KTAT 070345Z 11002KT 24/12 A3006 RMK A01 T02360124  RH  052%=      5-min Rain = 0
KTAT 070350Z 31001KT 24/13 A3007 RMK A01 T02370129  RH  053%=      5-min Rain = 0
KTAT 070355Z 29011G16KT 24/14 A3008 RMK A01 T02350141  RH  058%=      5-min Rain = 0
KTAT 070400Z 28018G34KT 24/12 A3009 RMK A01 T02440120  RH  048%=      5-min Rain = 0
KTAT 070405Z 15011G16KT 27/09 A3008 RMK A01 T02680094  RH  034%=      5-min Rain = 0
KTAT 070410Z 21008G15KT 27/10 A3008 RMK A01 T02720096  RH  034%=      5-min Rain = 0
KTAT 070415Z 24005KT 27/11 A3008 RMK A01 T02660108  RH  038%=      5-min Rain = 0
KTAT 070420Z 21005KT 26/11 A3009 RMK A01 T02600109  RH  040%=      5-min Rain = 0
KTAT 070425Z 24004KT 26/12 A3009 RMK A01 T02570116  RH  043%=      5-min Rain = 0
KTAT 070430Z 26004KT 25/13 A3009 RMK A01 T02480128  RH  049%=      5-min Rain = 0
KTAT 070435Z 21002KT 24/13 A3008 RMK A01 T02430130  RH  051%=      5-min Rain = 0
KTAT 070440Z 16004KT 24/13 A3008 RMK A01 T02380126  RH  051%=      5-min Rain = 0
KTAT 070445Z 16004KT 23/13 A3008 RMK A01 T02330129  RH  054%=      5-min Rain = 0
KTAT 070450Z 17003KT 23/13 A3008 RMK A01 T02300130  RH  056%=      5-min Rain = 0
KTAT 070455Z 16002KT 23/14 A3008 RMK A01 T02280135  RH  058%=      5-min Rain = 0

Page generated in 0.0085 seconds.